sensor_id;sensor_type;location;lat;lon;timestamp;P1;durP1;ratioP1;P2;durP2;ratioP2
55254;SDS011;41118;44.634;11.182;2022-12-07T00:00:53;16.92;;;6.38;;
55254;SDS011;41118;44.634;11.182;2022-12-07T00:03:19;16.23;;;7.18;;
55254;SDS011;41118;44.634;11.182;2022-12-07T00:05:45;11.80;;;4.63;;
55254;SDS011;41118;44.634;11.182;2022-12-07T00:08:11;19.13;;;5.10;;
55254;SDS011;41118;44.634;11.182;2022-12-07T00:10:37;12.13;;;5.65;;
55254;SDS011;41118;44.634;11.182;2022-12-07T00:13:04;14.32;;;3.97;;
55254;SDS011;41118;44.634;11.182;2022-12-07T00:15:30;14.77;;;4.47;;
55254;SDS011;41118;44.634;11.182;2022-12-07T00:17:56;15.80;;;6.90;;
55254;SDS011;41118;44.634;11.182;2022-12-07T00:20:22;9.88;;;4.05;;
55254;SDS011;41118;44.634;11.182;2022-12-07T00:22:48;11.18;;;3.03;;
55254;SDS011;41118;44.634;11.182;2022-12-07T00:25:14;9.45;;;3.47;;
55254;SDS011;41118;44.634;11.182;2022-12-07T00:27:40;11.85;;;4.63;;
55254;SDS011;41118;44.634;11.182;2022-12-07T00:30:06;14.25;;;4.18;;
55254;SDS011;41118;44.634;11.182;2022-12-07T00:32:33;15.75;;;5.13;;
55254;SDS011;41118;44.634;11.182;2022-12-07T00:34:59;11.10;;;3.53;;
55254;SDS011;41118;44.634;11.182;2022-12-07T00:37:25;14.07;;;5.28;;
55254;SDS011;41118;44.634;11.182;2022-12-07T00:39:51;15.15;;;6.18;;
55254;SDS011;41118;44.634;11.182;2022-12-07T00:42:17;13.20;;;5.40;;
55254;SDS011;41118;44.634;11.182;2022-12-07T00:44:43;18.70;;;6.55;;
55254;SDS011;41118;44.634;11.182;2022-12-07T00:47:09;13.27;;;3.88;;
55254;SDS011;41118;44.634;11.182;2022-12-07T00:49:35;16.08;;;4.80;;
55254;SDS011;41118;44.634;11.182;2022-12-07T00:52:02;12.95;;;4.75;;
55254;SDS011;41118;44.634;11.182;2022-12-07T00:54:28;17.30;;;4.72;;
55254;SDS011;41118;44.634;11.182;2022-12-07T00:56:55;13.80;;;5.75;;
55254;SDS011;41118;44.634;11.182;2022-12-07T00:59:21;10.65;;;3.33;;
55254;SDS011;41118;44.634;11.182;2022-12-07T01:01:47;12.45;;;3.70;;
55254;SDS011;41118;44.634;11.182;2022-12-07T01:04:14;14.35;;;5.55;;
55254;SDS011;41118;44.634;11.182;2022-12-07T01:06:40;16.48;;;6.75;;
55254;SDS011;41118;44.634;11.182;2022-12-07T01:09:06;14.82;;;5.15;;
55254;SDS011;41118;44.634;11.182;2022-12-07T01:11:32;14.55;;;5.75;;
55254;SDS011;41118;44.634;11.182;2022-12-07T01:13:59;19.90;;;6.63;;
55254;SDS011;41118;44.634;11.182;2022-12-07T01:16:26;15.63;;;5.55;;
55254;SDS011;41118;44.634;11.182;2022-12-07T01:18:54;24.05;;;8.10;;
55254;SDS011;41118;44.634;11.182;2022-12-07T01:21:21;19.65;;;6.03;;
55254;SDS011;41118;44.634;11.182;2022-12-07T01:23:48;19.83;;;7.28;;
55254;SDS011;41118;44.634;11.182;2022-12-07T01:26:16;23.52;;;8.10;;
55254;SDS011;41118;44.634;11.182;2022-12-07T01:28:42;20.98;;;5.85;;
55254;SDS011;41118;44.634;11.182;2022-12-07T01:31:10;17.15;;;6.85;;
55254;SDS011;41118;44.634;11.182;2022-12-07T01:33:37;18.20;;;7.30;;
55254;SDS011;41118;44.634;11.182;2022-12-07T01:36:08;18.23;;;7.25;;
55254;SDS011;41118;44.634;11.182;2022-12-07T01:38:34;15.30;;;7.13;;
55254;SDS011;41118;44.634;11.182;2022-12-07T01:41:01;19.52;;;7.47;;
55254;SDS011;41118;44.634;11.182;2022-12-07T01:43:28;23.42;;;7.07;;
55254;SDS011;41118;44.634;11.182;2022-12-07T01:45:55;17.75;;;6.70;;
55254;SDS011;41118;44.634;11.182;2022-12-07T01:48:23;21.92;;;8.15;;
55254;SDS011;41118;44.634;11.182;2022-12-07T01:50:50;24.27;;;7.88;;
55254;SDS011;41118;44.634;11.182;2022-12-07T01:53:18;24.58;;;9.23;;
55254;SDS011;41118;44.634;11.182;2022-12-07T01:55:46;24.85;;;9.15;;
55254;SDS011;41118;44.634;11.182;2022-12-07T01:58:13;26.80;;;9.88;;
55254;SDS011;41118;44.634;11.182;2022-12-07T02:00:40;24.48;;;9.05;;
55254;SDS011;41118;44.634;11.182;2022-12-07T02:05:35;28.77;;;8.75;;
55254;SDS011;41118;44.634;11.182;2022-12-07T02:08:03;28.58;;;10.52;;
55254;SDS011;41118;44.634;11.182;2022-12-07T02:10:30;20.48;;;8.35;;
55254;SDS011;41118;44.634;11.182;2022-12-07T02:12:58;25.42;;;9.13;;
55254;SDS011;41118;44.634;11.182;2022-12-07T02:15:27;27.38;;;10.35;;
55254;SDS011;41118;44.634;11.182;2022-12-07T02:18:05;27.65;;;9.38;;
55254;SDS011;41118;44.634;11.182;2022-12-07T02:20:34;29.45;;;9.43;;
55254;SDS011;41118;44.634;11.182;2022-12-07T02:25:58;21.30;;;8.68;;
55254;SDS011;41118;44.634;11.182;2022-12-07T02:28:33;28.48;;;10.40;;
55254;SDS011;41118;44.634;11.182;2022-12-07T02:31:08;22.77;;;7.18;;
55254;SDS011;41118;44.634;11.182;2022-12-07T02:33:46;25.33;;;11.48;;
55254;SDS011;41118;44.634;11.182;2022-12-07T02:36:20;25.27;;;8.68;;
55254;SDS011;41118;44.634;11.182;2022-12-07T02:41:18;27.80;;;10.13;;
55254;SDS011;41118;44.634;11.182;2022-12-07T02:43:50;27.02;;;11.38;;
55254;SDS011;41118;44.634;11.182;2022-12-07T02:46:23;26.02;;;9.07;;
55254;SDS011;41118;44.634;11.182;2022-12-07T02:48:50;27.35;;;8.82;;
55254;SDS011;41118;44.634;11.182;2022-12-07T02:51:17;25.00;;;9.45;;
55254;SDS011;41118;44.634;11.182;2022-12-07T02:53:44;23.48;;;7.47;;
55254;SDS011;41118;44.634;11.182;2022-12-07T02:56:13;22.30;;;8.52;;
55254;SDS011;41118;44.634;11.182;2022-12-07T03:01:27;25.20;;;10.45;;
55254;SDS011;41118;44.634;11.182;2022-12-07T03:03:58;20.55;;;9.55;;
55254;SDS011;41118;44.634;11.182;2022-12-07T03:06:36;24.90;;;8.40;;
55254;SDS011;41118;44.634;11.182;2022-12-07T03:14:15;24.50;;;7.60;;
55254;SDS011;41118;44.634;11.182;2022-12-07T03:16:45;26.25;;;10.10;;
55254;SDS011;41118;44.634;11.182;2022-12-07T03:19:17;23.92;;;11.07;;
55254;SDS011;41118;44.634;11.182;2022-12-07T03:21:52;28.92;;;9.73;;
55254;SDS011;41118;44.634;11.182;2022-12-07T03:24:21;27.25;;;9.85;;
55254;SDS011;41118;44.634;11.182;2022-12-07T03:26:48;25.33;;;10.50;;
55254;SDS011;41118;44.634;11.182;2022-12-07T03:29:24;24.63;;;8.98;;
55254;SDS011;41118;44.634;11.182;2022-12-07T03:31:53;25.80;;;10.57;;
55254;SDS011;41118;44.634;11.182;2022-12-07T03:34:33;26.88;;;10.10;;
55254;SDS011;41118;44.634;11.182;2022-12-07T03:37:01;26.65;;;8.40;;
55254;SDS011;41118;44.634;11.182;2022-12-07T03:41:57;29.55;;;9.55;;
55254;SDS011;41118;44.634;11.182;2022-12-07T03:44:24;27.38;;;9.75;;
55254;SDS011;41118;44.634;11.182;2022-12-07T03:47:11;24.73;;;9.40;;
55254;SDS011;41118;44.634;11.182;2022-12-07T03:54:38;26.65;;;11.27;;
55254;SDS011;41118;44.634;11.182;2022-12-07T03:57:05;31.13;;;11.35;;
55254;SDS011;41118;44.634;11.182;2022-12-07T03:59:32;25.60;;;10.15;;
55254;SDS011;41118;44.634;11.182;2022-12-07T04:02:03;24.13;;;10.32;;
55254;SDS011;41118;44.634;11.182;2022-12-07T04:04:29;30.55;;;10.75;;
55254;SDS011;41118;44.634;11.182;2022-12-07T04:06:56;30.83;;;10.13;;
55254;SDS011;41118;44.634;11.182;2022-12-07T04:09:23;34.83;;;12.35;;
55254;SDS011;41118;44.634;11.182;2022-12-07T04:11:49;30.25;;;10.40;;
55254;SDS011;41118;44.634;11.182;2022-12-07T04:14:15;28.48;;;12.88;;
55254;SDS011;41118;44.634;11.182;2022-12-07T04:16:47;28.25;;;10.98;;
55254;SDS011;41118;44.634;11.182;2022-12-07T04:19:14;29.00;;;9.65;;
55254;SDS011;41118;44.634;11.182;2022-12-07T04:21:40;30.77;;;13.85;;
55254;SDS011;41118;44.634;11.182;2022-12-07T04:24:07;34.97;;;12.27;;
55254;SDS011;41118;44.634;11.182;2022-12-07T04:26:33;32.10;;;11.13;;
55254;SDS011;41118;44.634;11.182;2022-12-07T04:28:59;29.17;;;11.85;;
55254;SDS011;41118;44.634;11.182;2022-12-07T04:31:25;28.90;;;10.20;;
55254;SDS011;41118;44.634;11.182;2022-12-07T04:33:51;27.75;;;9.75;;
55254;SDS011;41118;44.634;11.182;2022-12-07T04:36:17;32.53;;;10.40;;
55254;SDS011;41118;44.634;11.182;2022-12-07T04:38:45;31.10;;;11.32;;
55254;SDS011;41118;44.634;11.182;2022-12-07T04:41:11;24.52;;;9.70;;
55254;SDS011;41118;44.634;11.182;2022-12-07T04:43:37;43.30;;;11.27;;
55254;SDS011;41118;44.634;11.182;2022-12-07T04:46:04;30.75;;;10.65;;
55254;SDS011;41118;44.634;11.182;2022-12-07T04:48:30;28.00;;;10.63;;
55254;SDS011;41118;44.634;11.182;2022-12-07T04:50:56;29.05;;;10.23;;
55254;SDS011;41118;44.634;11.182;2022-12-07T04:53:23;32.47;;;11.75;;
55254;SDS011;41118;44.634;11.182;2022-12-07T04:55:49;32.60;;;11.55;;
55254;SDS011;41118;44.634;11.182;2022-12-07T04:58:15;33.60;;;12.95;;
55254;SDS011;41118;44.634;11.182;2022-12-07T05:00:41;28.02;;;10.73;;
55254;SDS011;41118;44.634;11.182;2022-12-07T05:03:08;22.25;;;9.00;;
55254;SDS011;41118;44.634;11.182;2022-12-07T05:05:34;34.38;;;11.77;;
55254;SDS011;41118;44.634;11.182;2022-12-07T05:08:00;29.27;;;10.32;;
55254;SDS011;41118;44.634;11.182;2022-12-07T05:10:26;20.42;;;10.15;;
55254;SDS011;41118;44.634;11.182;2022-12-07T05:12:53;27.95;;;10.35;;
55254;SDS011;41118;44.634;11.182;2022-12-07T05:15:19;23.88;;;9.27;;
55254;SDS011;41118;44.634;11.182;2022-12-07T05:17:45;24.63;;;9.73;;
55254;SDS011;41118;44.634;11.182;2022-12-07T05:20:11;24.05;;;9.38;;
55254;SDS011;41118;44.634;11.182;2022-12-07T05:22:37;23.83;;;11.50;;
55254;SDS011;41118;44.634;11.182;2022-12-07T05:25:03;30.60;;;10.48;;
55254;SDS011;41118;44.634;11.182;2022-12-07T05:27:30;24.42;;;7.95;;
55254;SDS011;41118;44.634;11.182;2022-12-07T05:29:56;29.92;;;11.15;;
55254;SDS011;41118;44.634;11.182;2022-12-07T05:32:22;31.65;;;10.32;;
55254;SDS011;41118;44.634;11.182;2022-12-07T05:34:48;33.38;;;10.90;;
55254;SDS011;41118;44.634;11.182;2022-12-07T05:37:15;36.13;;;11.07;;
55254;SDS011;41118;44.634;11.182;2022-12-07T05:39:40;26.05;;;10.50;;
55254;SDS011;41118;44.634;11.182;2022-12-07T05:42:08;23.73;;;9.90;;
55254;SDS011;41118;44.634;11.182;2022-12-07T05:44:37;30.27;;;9.73;;
55254;SDS011;41118;44.634;11.182;2022-12-07T05:47:04;32.67;;;12.13;;
55254;SDS011;41118;44.634;11.182;2022-12-07T05:49:30;22.23;;;6.68;;
55254;SDS011;41118;44.634;11.182;2022-12-07T05:51:56;20.55;;;7.63;;
55254;SDS011;41118;44.634;11.182;2022-12-07T05:54:23;20.70;;;8.00;;
55254;SDS011;41118;44.634;11.182;2022-12-07T05:56:49;23.45;;;7.88;;
55254;SDS011;41118;44.634;11.182;2022-12-07T05:59:16;27.77;;;9.13;;
55254;SDS011;41118;44.634;11.182;2022-12-07T06:04:44;30.15;;;11.85;;
55254;SDS011;41118;44.634;11.182;2022-12-07T06:07:14;24.35;;;8.30;;
55254;SDS011;41118;44.634;11.182;2022-12-07T06:09:40;24.60;;;9.05;;
55254;SDS011;41118;44.634;11.182;2022-12-07T06:12:08;24.75;;;9.23;;
55254;SDS011;41118;44.634;11.182;2022-12-07T06:14:53;25.02;;;6.97;;
55254;SDS011;41118;44.634;11.182;2022-12-07T06:17:19;19.65;;;7.32;;
55254;SDS011;41118;44.634;11.182;2022-12-07T06:19:45;25.95;;;9.25;;
55254;SDS011;41118;44.634;11.182;2022-12-07T06:22:12;26.17;;;11.25;;
55254;SDS011;41118;44.634;11.182;2022-12-07T06:24:38;30.17;;;10.18;;
55254;SDS011;41118;44.634;11.182;2022-12-07T06:27:05;23.73;;;8.15;;
55254;SDS011;41118;44.634;11.182;2022-12-07T06:29:31;23.02;;;8.43;;
55254;SDS011;41118;44.634;11.182;2022-12-07T06:31:57;30.02;;;8.68;;
55254;SDS011;41118;44.634;11.182;2022-12-07T06:34:24;34.05;;;11.77;;
55254;SDS011;41118;44.634;11.182;2022-12-07T06:36:51;26.73;;;10.10;;
55254;SDS011;41118;44.634;11.182;2022-12-07T06:39:19;24.40;;;9.70;;
55254;SDS011;41118;44.634;11.182;2022-12-07T06:41:45;27.95;;;9.80;;
55254;SDS011;41118;44.634;11.182;2022-12-07T06:44:11;26.75;;;11.10;;
55254;SDS011;41118;44.634;11.182;2022-12-07T06:46:38;21.92;;;8.70;;
55254;SDS011;41118;44.634;11.182;2022-12-07T06:49:04;28.08;;;9.80;;
55254;SDS011;41118;44.634;11.182;2022-12-07T06:51:31;31.05;;;12.07;;
55254;SDS011;41118;44.634;11.182;2022-12-07T06:53:57;34.72;;;9.50;;
55254;SDS011;41118;44.634;11.182;2022-12-07T06:56:24;43.50;;;14.10;;
55254;SDS011;41118;44.634;11.182;2022-12-07T06:58:50;24.95;;;10.73;;
55254;SDS011;41118;44.634;11.182;2022-12-07T07:01:17;24.20;;;9.43;;
55254;SDS011;41118;44.634;11.182;2022-12-07T07:03:44;27.92;;;11.15;;
55254;SDS011;41118;44.634;11.182;2022-12-07T07:06:11;37.25;;;12.80;;
55254;SDS011;41118;44.634;11.182;2022-12-07T07:08:38;26.88;;;9.57;;
55254;SDS011;41118;44.634;11.182;2022-12-07T07:11:05;27.55;;;11.95;;
55254;SDS011;41118;44.634;11.182;2022-12-07T07:13:31;27.58;;;11.95;;
55254;SDS011;41118;44.634;11.182;2022-12-07T07:15:57;27.67;;;10.38;;
55254;SDS011;41118;44.634;11.182;2022-12-07T07:18:24;30.60;;;12.43;;
55254;SDS011;41118;44.634;11.182;2022-12-07T07:20:50;31.00;;;12.32;;
55254;SDS011;41118;44.634;11.182;2022-12-07T07:23:16;35.75;;;12.55;;
55254;SDS011;41118;44.634;11.182;2022-12-07T07:25:43;30.40;;;11.35;;
55254;SDS011;41118;44.634;11.182;2022-12-07T07:28:10;28.23;;;11.48;;
55254;SDS011;41118;44.634;11.182;2022-12-07T07:30:36;28.48;;;11.20;;
55254;SDS011;41118;44.634;11.182;2022-12-07T07:33:03;26.27;;;11.30;;
55254;SDS011;41118;44.634;11.182;2022-12-07T07:35:29;26.27;;;10.85;;
55254;SDS011;41118;44.634;11.182;2022-12-07T07:37:55;26.15;;;11.63;;
55254;SDS011;41118;44.634;11.182;2022-12-07T07:40:22;32.63;;;13.50;;
55254;SDS011;41118;44.634;11.182;2022-12-07T07:42:48;31.88;;;13.43;;
55254;SDS011;41118;44.634;11.182;2022-12-07T07:45:14;38.75;;;15.60;;
55254;SDS011;41118;44.634;11.182;2022-12-07T07:47:41;35.28;;;12.13;;
55254;SDS011;41118;44.634;11.182;2022-12-07T07:50:07;30.10;;;14.43;;
55254;SDS011;41118;44.634;11.182;2022-12-07T07:52:34;36.22;;;13.80;;
55254;SDS011;41118;44.634;11.182;2022-12-07T07:55:00;36.35;;;18.08;;
55254;SDS011;41118;44.634;11.182;2022-12-07T07:57:27;33.88;;;14.15;;
55254;SDS011;41118;44.634;11.182;2022-12-07T07:59:53;32.30;;;13.07;;
55254;SDS011;41118;44.634;11.182;2022-12-07T08:02:20;38.90;;;13.73;;
55254;SDS011;41118;44.634;11.182;2022-12-07T08:04:46;33.45;;;13.77;;
55254;SDS011;41118;44.634;11.182;2022-12-07T08:07:13;45.15;;;18.40;;
55254;SDS011;41118;44.634;11.182;2022-12-07T08:09:40;30.60;;;13.02;;
55254;SDS011;41118;44.634;11.182;2022-12-07T08:12:07;36.60;;;14.73;;
55254;SDS011;41118;44.634;11.182;2022-12-07T08:14:33;48.85;;;20.25;;
55254;SDS011;41118;44.634;11.182;2022-12-07T08:16:59;81.32;;;26.40;;
55254;SDS011;41118;44.634;11.182;2022-12-07T08:19:26;39.83;;;17.85;;
55254;SDS011;41118;44.634;11.182;2022-12-07T08:21:52;36.25;;;14.57;;
55254;SDS011;41118;44.634;11.182;2022-12-07T08:24:20;47.78;;;20.02;;
55254;SDS011;41118;44.634;11.182;2022-12-07T08:26:46;55.35;;;19.30;;
55254;SDS011;41118;44.634;11.182;2022-12-07T08:29:13;29.45;;;14.60;;
55254;SDS011;41118;44.634;11.182;2022-12-07T08:31:39;38.35;;;14.52;;
55254;SDS011;41118;44.634;11.182;2022-12-07T08:34:05;44.47;;;15.35;;
55254;SDS011;41118;44.634;11.182;2022-12-07T08:36:32;44.10;;;15.90;;
55254;SDS011;41118;44.634;11.182;2022-12-07T08:38:58;37.17;;;14.95;;
55254;SDS011;41118;44.634;11.182;2022-12-07T08:41:24;37.85;;;16.05;;
55254;SDS011;41118;44.634;11.182;2022-12-07T08:43:51;36.08;;;16.45;;
55254;SDS011;41118;44.634;11.182;2022-12-07T08:49:04;33.20;;;14.55;;
55254;SDS011;41118;44.634;11.182;2022-12-07T08:51:30;34.03;;;13.52;;
55254;SDS011;41118;44.634;11.182;2022-12-07T08:53:57;37.25;;;12.93;;
55254;SDS011;41118;44.634;11.182;2022-12-07T08:56:25;32.35;;;12.80;;
55254;SDS011;41118;44.634;11.182;2022-12-07T08:58:51;29.45;;;11.48;;
55254;SDS011;41118;44.634;11.182;2022-12-07T09:01:18;32.80;;;12.80;;
55254;SDS011;41118;44.634;11.182;2022-12-07T09:03:44;36.10;;;11.48;;
55254;SDS011;41118;44.634;11.182;2022-12-07T09:06:10;27.92;;;11.43;;
55254;SDS011;41118;44.634;11.182;2022-12-07T09:08:38;28.75;;;14.15;;
55254;SDS011;41118;44.634;11.182;2022-12-07T09:11:04;32.33;;;13.98;;
55254;SDS011;41118;44.634;11.182;2022-12-07T09:13:30;31.80;;;13.00;;
55254;SDS011;41118;44.634;11.182;2022-12-07T09:15:57;25.08;;;13.77;;
55254;SDS011;41118;44.634;11.182;2022-12-07T09:18:23;30.48;;;12.82;;
55254;SDS011;41118;44.634;11.182;2022-12-07T09:20:50;23.38;;;9.48;;
55254;SDS011;41118;44.634;11.182;2022-12-07T09:23:16;26.48;;;12.77;;
55254;SDS011;41118;44.634;11.182;2022-12-07T09:25:42;29.83;;;12.40;;
55254;SDS011;41118;44.634;11.182;2022-12-07T09:28:09;24.83;;;12.68;;
55254;SDS011;41118;44.634;11.182;2022-12-07T09:30:35;26.75;;;11.93;;
55254;SDS011;41118;44.634;11.182;2022-12-07T09:33:01;21.23;;;9.13;;
55254;SDS011;41118;44.634;11.182;2022-12-07T09:35:28;30.30;;;11.82;;
55254;SDS011;41118;44.634;11.182;2022-12-07T09:37:54;25.40;;;11.45;;
55254;SDS011;41118;44.634;11.182;2022-12-07T09:40:20;31.52;;;14.20;;
55254;SDS011;41118;44.634;11.182;2022-12-07T09:42:48;30.50;;;15.48;;
55254;SDS011;41118;44.634;11.182;2022-12-07T09:45:20;35.80;;;12.43;;
55254;SDS011;41118;44.634;11.182;2022-12-07T09:47:46;23.38;;;11.43;;
55254;SDS011;41118;44.634;11.182;2022-12-07T09:50:14;26.77;;;11.80;;
55254;SDS011;41118;44.634;11.182;2022-12-07T09:52:41;22.38;;;11.15;;
55254;SDS011;41118;44.634;11.182;2022-12-07T09:55:09;24.70;;;12.43;;
55254;SDS011;41118;44.634;11.182;2022-12-07T09:57:36;24.90;;;12.63;;
55254;SDS011;41118;44.634;11.182;2022-12-07T10:00:05;27.15;;;12.15;;
55254;SDS011;41118;44.634;11.182;2022-12-07T10:02:37;21.20;;;10.40;;
55254;SDS011;41118;44.634;11.182;2022-12-07T10:05:04;22.25;;;11.13;;
55254;SDS011;41118;44.634;11.182;2022-12-07T10:07:31;30.52;;;15.10;;
55254;SDS011;41118;44.634;11.182;2022-12-07T10:09:57;34.10;;;14.07;;
55254;SDS011;41118;44.634;11.182;2022-12-07T10:12:23;29.05;;;13.65;;
55254;SDS011;41118;44.634;11.182;2022-12-07T10:14:59;32.50;;;12.32;;
55254;SDS011;41118;44.634;11.182;2022-12-07T10:22:37;23.02;;;11.90;;
55254;SDS011;41118;44.634;11.182;2022-12-07T10:25:07;32.60;;;12.70;;
55254;SDS011;41118;44.634;11.182;2022-12-07T10:27:34;22.80;;;10.63;;
55254;SDS011;41118;44.634;11.182;2022-12-07T10:30:01;34.72;;;14.48;;
55254;SDS011;41118;44.634;11.182;2022-12-07T10:32:34;41.72;;;12.57;;
55254;SDS011;41118;44.634;11.182;2022-12-07T10:35:20;27.00;;;13.80;;
55254;SDS011;41118;44.634;11.182;2022-12-07T10:37:47;24.05;;;11.65;;
55254;SDS011;41118;44.634;11.182;2022-12-07T10:40:32;26.15;;;10.90;;
55254;SDS011;41118;44.634;11.182;2022-12-07T11:06:41;19.85;;;9.90;;
55254;SDS011;41118;44.634;11.182;2022-12-07T11:09:23;21.42;;;11.55;;
55254;SDS011;41118;44.634;11.182;2022-12-07T11:11:58;22.08;;;9.27;;
55254;SDS011;41118;44.634;11.182;2022-12-07T11:14:33;15.80;;;7.78;;
55254;SDS011;41118;44.634;11.182;2022-12-07T11:17:07;25.38;;;11.65;;
55254;SDS011;41118;44.634;11.182;2022-12-07T11:19:53;24.55;;;10.52;;
55254;SDS011;41118;44.634;11.182;2022-12-07T11:27:42;27.48;;;15.30;;
55254;SDS011;41118;44.634;11.182;2022-12-07T11:30:28;29.98;;;15.80;;
55254;SDS011;41118;44.634;11.182;2022-12-07T11:35:31;33.22;;;14.27;;
55254;SDS011;41118;44.634;11.182;2022-12-07T11:37:59;25.45;;;10.25;;
55254;SDS011;41118;44.634;11.182;2022-12-07T11:40:29;23.55;;;9.98;;
55254;SDS011;41118;44.634;11.182;2022-12-07T11:45:39;22.27;;;8.52;;
55254;SDS011;41118;44.634;11.182;2022-12-07T11:48:11;24.17;;;10.80;;
55254;SDS011;41118;44.634;11.182;2022-12-07T11:50:41;21.33;;;8.93;;
55254;SDS011;41118;44.634;11.182;2022-12-07T12:00:53;21.05;;;10.73;;
55254;SDS011;41118;44.634;11.182;2022-12-07T12:03:27;22.80;;;11.25;;
55254;SDS011;41118;44.634;11.182;2022-12-07T12:05:55;22.85;;;10.00;;
55254;SDS011;41118;44.634;11.182;2022-12-07T12:08:24;17.98;;;8.63;;
55254;SDS011;41118;44.634;11.182;2022-12-07T12:13:32;16.98;;;7.55;;
55254;SDS011;41118;44.634;11.182;2022-12-07T12:18:32;16.83;;;7.97;;
55254;SDS011;41118;44.634;11.182;2022-12-07T12:21:04;26.73;;;10.43;;
55254;SDS011;41118;44.634;11.182;2022-12-07T12:26:19;13.60;;;6.22;;
55254;SDS011;41118;44.634;11.182;2022-12-07T12:31:13;17.15;;;7.32;;
55254;SDS011;41118;44.634;11.182;2022-12-07T12:33:49;15.32;;;4.40;;
55254;SDS011;41118;44.634;11.182;2022-12-07T12:43:59;12.40;;;4.90;;
55254;SDS011;41118;44.634;11.182;2022-12-07T12:46:36;14.15;;;5.47;;
55254;SDS011;41118;44.634;11.182;2022-12-07T12:54:34;17.48;;;7.35;;
55254;SDS011;41118;44.634;11.182;2022-12-07T12:57:15;12.57;;;6.55;;
55254;SDS011;41118;44.634;11.182;2022-12-07T13:04:58;13.60;;;4.50;;
55254;SDS011;41118;44.634;11.182;2022-12-07T13:17:59;17.00;;;6.47;;
55254;SDS011;41118;44.634;11.182;2022-12-07T13:23:07;22.23;;;10.50;;
55254;SDS011;41118;44.634;11.182;2022-12-07T13:25:41;19.70;;;9.18;;
55254;SDS011;41118;44.634;11.182;2022-12-07T13:30:47;17.88;;;6.93;;
55254;SDS011;41118;44.634;11.182;2022-12-07T13:33:17;14.25;;;6.47;;
55254;SDS011;41118;44.634;11.182;2022-12-07T13:35:44;15.65;;;4.93;;
55254;SDS011;41118;44.634;11.182;2022-12-07T13:38:27;18.05;;;7.72;;
55254;SDS011;41118;44.634;11.182;2022-12-07T13:41:01;14.60;;;8.75;;
55254;SDS011;41118;44.634;11.182;2022-12-07T13:43:27;16.15;;;5.75;;
55254;SDS011;41118;44.634;11.182;2022-12-07T13:45:57;15.75;;;6.57;;
55254;SDS011;41118;44.634;11.182;2022-12-07T13:50:59;17.95;;;6.88;;
55254;SDS011;41118;44.634;11.182;2022-12-07T13:53:26;14.80;;;6.63;;
55254;SDS011;41118;44.634;11.182;2022-12-07T13:55:55;13.05;;;7.25;;
55254;SDS011;41118;44.634;11.182;2022-12-07T13:58:22;18.10;;;9.10;;
55254;SDS011;41118;44.634;11.182;2022-12-07T14:00:51;17.40;;;8.20;;
55254;SDS011;41118;44.634;11.182;2022-12-07T14:03:23;21.42;;;8.57;;
55254;SDS011;41118;44.634;11.182;2022-12-07T14:06:03;19.55;;;10.30;;
55254;SDS011;41118;44.634;11.182;2022-12-07T14:08:29;16.98;;;9.05;;
55254;SDS011;41118;44.634;11.182;2022-12-07T14:10:56;21.20;;;9.80;;
55254;SDS011;41118;44.634;11.182;2022-12-07T14:14:05;21.55;;;9.70;;
55254;SDS011;41118;44.634;11.182;2022-12-07T14:16:22;23.30;;;10.85;;
55254;SDS011;41118;44.634;11.182;2022-12-07T14:18:50;29.42;;;11.65;;
55254;SDS011;41118;44.634;11.182;2022-12-07T14:21:16;21.83;;;9.93;;
55254;SDS011;41118;44.634;11.182;2022-12-07T14:23:44;21.05;;;11.50;;
55254;SDS011;41118;44.634;11.182;2022-12-07T14:26:14;24.02;;;12.27;;
55254;SDS011;41118;44.634;11.182;2022-12-07T14:28:41;23.30;;;11.52;;
55254;SDS011;41118;44.634;11.182;2022-12-07T14:31:12;26.75;;;14.02;;
55254;SDS011;41118;44.634;11.182;2022-12-07T14:33:39;30.58;;;13.05;;
55254;SDS011;41118;44.634;11.182;2022-12-07T14:36:08;31.85;;;14.38;;
55254;SDS011;41118;44.634;11.182;2022-12-07T14:38:34;25.75;;;11.82;;
55254;SDS011;41118;44.634;11.182;2022-12-07T14:41:01;33.97;;;12.35;;
55254;SDS011;41118;44.634;11.182;2022-12-07T14:43:46;25.13;;;13.63;;
55254;SDS011;41118;44.634;11.182;2022-12-07T14:46:12;26.35;;;12.77;;
55254;SDS011;41118;44.634;11.182;2022-12-07T14:48:38;25.98;;;10.50;;
55254;SDS011;41118;44.634;11.182;2022-12-07T14:51:04;29.48;;;12.88;;
55254;SDS011;41118;44.634;11.182;2022-12-07T14:53:35;25.48;;;12.43;;
55254;SDS011;41118;44.634;11.182;2022-12-07T14:56:03;31.88;;;12.82;;
55254;SDS011;41118;44.634;11.182;2022-12-07T14:58:32;29.27;;;12.70;;
55254;SDS011;41118;44.634;11.182;2022-12-07T15:00:58;20.58;;;10.00;;
55254;SDS011;41118;44.634;11.182;2022-12-07T15:03:24;35.42;;;12.48;;
55254;SDS011;41118;44.634;11.182;2022-12-07T15:05:51;19.45;;;9.98;;
55254;SDS011;41118;44.634;11.182;2022-12-07T15:08:17;20.92;;;9.82;;
55254;SDS011;41118;44.634;11.182;2022-12-07T15:10:44;18.50;;;11.35;;
55254;SDS011;41118;44.634;11.182;2022-12-07T15:13:12;28.27;;;10.52;;
55254;SDS011;41118;44.634;11.182;2022-12-07T15:15:56;25.67;;;11.20;;
55254;SDS011;41118;44.634;11.182;2022-12-07T15:18:23;17.65;;;10.02;;
55254;SDS011;41118;44.634;11.182;2022-12-07T15:20:54;23.02;;;12.88;;
55254;SDS011;41118;44.634;11.182;2022-12-07T15:23:20;22.25;;;13.05;;
55254;SDS011;41118;44.634;11.182;2022-12-07T15:25:47;29.50;;;11.77;;
55254;SDS011;41118;44.634;11.182;2022-12-07T15:28:13;21.80;;;10.32;;
55254;SDS011;41118;44.634;11.182;2022-12-07T15:30:41;23.75;;;10.05;;
55254;SDS011;41118;44.634;11.182;2022-12-07T15:33:11;20.70;;;12.05;;
55254;SDS011;41118;44.634;11.182;2022-12-07T15:35:41;24.95;;;11.27;;
55254;SDS011;41118;44.634;11.182;2022-12-07T15:38:07;24.17;;;10.80;;
55254;SDS011;41118;44.634;11.182;2022-12-07T15:40:33;26.80;;;12.55;;
55254;SDS011;41118;44.634;11.182;2022-12-07T15:43:00;18.33;;;8.15;;
55254;SDS011;41118;44.634;11.182;2022-12-07T15:45:26;25.63;;;11.00;;
55254;SDS011;41118;44.634;11.182;2022-12-07T15:47:52;26.83;;;11.00;;
55254;SDS011;41118;44.634;11.182;2022-12-07T15:50:20;19.80;;;11.07;;
55254;SDS011;41118;44.634;11.182;2022-12-07T15:52:47;17.90;;;9.77;;
55254;SDS011;41118;44.634;11.182;2022-12-07T15:55:13;23.73;;;11.10;;
55254;SDS011;41118;44.634;11.182;2022-12-07T15:57:39;15.65;;;9.77;;
55254;SDS011;41118;44.634;11.182;2022-12-07T16:00:06;21.75;;;10.95;;
55254;SDS011;41118;44.634;11.182;2022-12-07T16:02:33;23.98;;;11.20;;
55254;SDS011;41118;44.634;11.182;2022-12-07T16:04:59;22.77;;;10.75;;
55254;SDS011;41118;44.634;11.182;2022-12-07T16:07:25;23.70;;;11.40;;
55254;SDS011;41118;44.634;11.182;2022-12-07T16:09:51;22.75;;;9.23;;
55254;SDS011;41118;44.634;11.182;2022-12-07T16:12:17;23.23;;;12.23;;
55254;SDS011;41118;44.634;11.182;2022-12-07T16:14:43;21.40;;;9.70;;
55254;SDS011;41118;44.634;11.182;2022-12-07T16:17:10;24.33;;;10.68;;
55254;SDS011;41118;44.634;11.182;2022-12-07T16:19:36;19.63;;;8.48;;
55254;SDS011;41118;44.634;11.182;2022-12-07T16:22:03;23.38;;;11.60;;